Fairview, Oklahoma
Current Conditions -  °F | °C
As of 4:35 PM on Monday 20 Oct 2014 (Local Time) from KJWG Reporting Station
Haze Haze  
Wind Chill: 80°   Ceiling: Unl
Heat Index: 82°   Visibility: 5mi
Dew Point: 65°   Wind: 3mph
Humidity: 61%   Direction: 80°E
Pressure: 30.02"   Gusts: NA
Location:  36.27°N, 98.48°W
Report Text: KJWG 202135Z AUTO 08003KT 5SM HZ CLR 27/18 A3002 RMK AO2 T02650183
Loading
Personal Weather Stations






























Interactive Weather Map
Tropical Storm Tracking
New forecast layout! Learn more

10-Day Weather Forecast

Advertisements
Track Severe Weather on mobile